Sharon, Michigan
Current Conditions -  °F | °C
As of 9:23 AM on Tuesday 21 Oct 2014 (Local Time) from KARB Reporting Station
Overcast Overcast  
Wind Chill:   Ceiling: 1200
Heat Index:   Visibility: 10mi
Dew Point:   Wind: 14mph
Humidity: 83%   Direction: 360°N
Pressure: 29.99"   Gusts: 20mph
Location:  42.1633°N, 84.0265°W
Report Text: KARB 211323Z 36012G17KT 10SM OVC012 09/06 A2999 RMK AO2 T00890061
Loading
Personal Weather Stations






























Interactive Weather Map
Tropical Storm Tracking
New forecast layout! Learn more

10-Day Weather Forecast

Advertisements
Track Severe Weather on mobile